SWR462 LSZH-LSZH
Flight info
| Callsign | SWR462 |
|---|---|
| Flight time | 0h 20m |
| Altitude | 17000 |
| Route | DEGES DCT NEGRA |
| Aircraft | A343/H-SDE2E3FGHIJ4J5M1RWXY/LB1D1 |
Departure
| Time | 2026-04-26 00:23 |
|---|---|
| Airport | Zürich Airport (LSZH) |
Arrival
| Time | 2026-04-26 00:43 |
|---|---|
| Airport | Zürich Airport (LSZH) |
| Time | Latitude | Longitude | Altitude | Speed | Heading |
|---|---|---|---|---|---|
| 2026-04-25 23:51 | 47.46055 | 8.55298 | 1407 ft | 0 kts | 6° |
| 2026-04-26 00:01 | 47.46044 | 8.55297 | 1410 ft | 3 kts | 6° |
| 2026-04-26 00:01 | 47.46025 | 8.55294 | 1405 ft | 3 kts | 6° |
| 2026-04-26 00:01 | 47.46005 | 8.55290 | 1409 ft | 3 kts | 36° |
| 2026-04-26 00:02 | 47.45992 | 8.55267 | 1411 ft | 3 kts | 83° |
| 2026-04-26 00:02 | 47.45988 | 8.55239 | 1409 ft | 3 kts | 74° |
| 2026-04-26 00:02 | 47.45986 | 8.55230 | 1408 ft | 0 kts | 74° |
| 2026-04-26 00:18 | 47.45988 | 8.55264 | 1401 ft | 7 kts | 89° |
| 2026-04-26 00:18 | 47.45980 | 8.55356 | 1404 ft | 10 kts | 98° |
| 2026-04-26 00:18 | 47.45976 | 8.55388 | 1409 ft | 0 kts | 97° |
| 2026-04-26 00:19 | 47.45968 | 8.55474 | 1407 ft | 5 kts | 98° |
| 2026-04-26 00:20 | 47.45964 | 8.55529 | 1410 ft | 14 kts | 95° |
| 2026-04-26 00:20 | 47.45951 | 8.55710 | 1401 ft | 8 kts | 96° |
| 2026-04-26 00:20 | 47.45944 | 8.55809 | 1401 ft | 12 kts | 96° |
| 2026-04-26 00:20 | 47.45935 | 8.55950 | 1410 ft | 16 kts | 96° |
| 2026-04-26 00:21 | 47.45921 | 8.56132 | 1409 ft | 20 kts | 96° |
| 2026-04-26 00:21 | 47.45919 | 8.56274 | 1404 ft | 6 kts | 64° |
| 2026-04-26 00:21 | 47.45965 | 8.56315 | 1408 ft | 9 kts | 13° |
| 2026-04-26 00:21 | 47.46044 | 8.56330 | 1410 ft | 15 kts | 7° |
| 2026-04-26 00:22 | 47.46157 | 8.56349 | 1415 ft | 17 kts | 5° |
| 2026-04-26 00:22 | 47.46275 | 8.56246 | 1417 ft | 34 kts | 316° |
| 2026-04-26 00:22 | 47.46621 | 8.55774 | 1415 ft | 103 kts | 317° |
| 2026-04-26 00:22 | 47.47291 | 8.54860 | 1424 ft | 155 kts | 316° |
| 2026-04-26 00:23 | 47.48121 | 8.53706 | 1896 ft | 171 kts | 316° |
| 2026-04-26 00:23 | 47.49045 | 8.52574 | 2600 ft | 181 kts | 327° |
| 2026-04-26 00:23 | 47.50147 | 8.51430 | 3085 ft | 206 kts | 324° |
| 2026-04-26 00:23 | 47.51135 | 8.49799 | 3918 ft | 220 kts | 303° |
| 2026-04-26 00:24 | 47.51672 | 8.47667 | 5079 ft | 223 kts | 280° |
| 2026-04-26 00:24 | 47.51715 | 8.45404 | 6332 ft | 220 kts | 261° |
| 2026-04-26 00:24 | 47.51137 | 8.43324 | 7494 ft | 223 kts | 235° |
| 2026-04-26 00:24 | 47.49934 | 8.41849 | 8501 ft | 232 kts | 206° |
| 2026-04-26 00:25 | 47.48327 | 8.41431 | 9472 ft | 242 kts | 175° |
| 2026-04-26 00:25 | 47.46751 | 8.42255 | 10407 ft | 249 kts | 146° |
| 2026-04-26 00:25 | 47.45555 | 8.44117 | 11254 ft | 258 kts | 119° |
| 2026-04-26 00:25 | 47.45022 | 8.46745 | 11686 ft | 281 kts | 88° |
| 2026-04-26 00:26 | 47.45400 | 8.49637 | 12278 ft | 295 kts | 72° |
| 2026-04-26 00:26 | 47.45663 | 8.52695 | 13148 ft | 304 kts | 86° |
| 2026-04-26 00:26 | 47.45704 | 8.55847 | 14074 ft | 310 kts | 86° |
| 2026-04-26 00:26 | 47.45813 | 8.59048 | 14870 ft | 315 kts | 83° |
| 2026-04-26 00:27 | 47.45956 | 8.62309 | 15640 ft | 321 kts | 83° |
| 2026-04-26 00:27 | 47.46095 | 8.65615 | 16430 ft | 326 kts | 83° |
| 2026-04-26 00:27 | 47.46232 | 8.68987 | 16968 ft | 330 kts | 83° |
| 2026-04-26 00:27 | 47.46364 | 8.72337 | 17171 ft | 332 kts | 83° |
| 2026-04-26 00:28 | 47.46492 | 8.75753 | 17187 ft | 334 kts | 84° |
| 2026-04-26 00:28 | 47.46618 | 8.79174 | 17191 ft | 335 kts | 85° |
| 2026-04-26 00:28 | 47.46589 | 8.82619 | 17185 ft | 335 kts | 95° |
| 2026-04-26 00:28 | 47.46187 | 8.86011 | 17185 ft | 335 kts | 101° |
| 2026-04-26 00:29 | 47.45686 | 8.89373 | 17182 ft | 335 kts | 101° |
| 2026-04-26 00:29 | 47.45184 | 8.92743 | 17183 ft | 340 kts | 101° |
| 2026-04-26 00:29 | 47.44670 | 8.96303 | 17171 ft | 370 kts | 100° |
| 2026-04-26 00:29 | 47.44119 | 9.00167 | 17161 ft | 399 kts | 100° |
| 2026-04-26 00:30 | 47.43543 | 9.04216 | 17158 ft | 415 kts | 100° |
| 2026-04-26 00:30 | 47.42938 | 9.08405 | 17172 ft | 417 kts | 101° |
| 2026-04-26 00:30 | 47.42376 | 9.12600 | 17173 ft | 416 kts | 96° |
| 2026-04-26 00:30 | 47.42375 | 9.16837 | 17172 ft | 412 kts | 79° |
| 2026-04-26 00:31 | 47.43268 | 9.20807 | 17178 ft | 406 kts | 60° |
| 2026-04-26 00:31 | 47.44954 | 9.24101 | 17169 ft | 402 kts | 42° |
| 2026-04-26 00:31 | 47.47237 | 9.26431 | 17128 ft | 399 kts | 25° |
| 2026-04-26 00:31 | 47.49842 | 9.27615 | 16899 ft | 386 kts | 9° |
| 2026-04-26 00:32 | 47.52358 | 9.28506 | 16833 ft | 368 kts | 19° |
| 2026-04-26 00:32 | 47.54672 | 9.29939 | 16806 ft | 356 kts | 22° |
| 2026-04-26 00:32 | 47.59360 | 9.31139 | 16304 ft | 324 kts | 353° |
| 2026-04-26 00:33 | 47.61459 | 9.30353 | 16283 ft | 310 kts | 337° |
| 2026-04-26 00:33 | 47.63281 | 9.28549 | 16041 ft | 327 kts | 314° |
| 2026-04-26 00:33 | 47.64566 | 9.25764 | 15424 ft | 322 kts | 298° |
| 2026-04-26 00:33 | 47.65228 | 9.22666 | 14489 ft | 316 kts | 277° |
| 2026-04-26 00:34 | 47.64916 | 9.19457 | 13378 ft | 320 kts | 250° |
| 2026-04-26 00:34 | 47.63750 | 9.16714 | 12252 ft | 319 kts | 234° |
| 2026-04-26 00:34 | 47.62381 | 9.14136 | 11130 ft | 316 kts | 234° |
| 2026-04-26 00:34 | 47.61073 | 9.11559 | 10028 ft | 310 kts | 236° |
| 2026-04-26 00:35 | 47.59831 | 9.08984 | 8851 ft | 305 kts | 236° |
| 2026-04-26 00:35 | 47.58637 | 9.06426 | 7730 ft | 299 kts | 237° |
| 2026-04-26 00:35 | 47.57371 | 9.04025 | 6651 ft | 293 kts | 225° |
| 2026-04-26 00:35 | 47.55748 | 9.02292 | 5782 ft | 282 kts | 211° |
| 2026-04-26 00:36 | 47.54102 | 9.00882 | 5253 ft | 264 kts | 209° |
| 2026-04-26 00:36 | 47.52526 | 8.99555 | 5031 ft | 260 kts | 209° |
| 2026-04-26 00:36 | 47.50973 | 8.98242 | 4996 ft | 261 kts | 209° |
| 2026-04-26 00:36 | 47.49394 | 8.96901 | 4996 ft | 262 kts | 209° |
| 2026-04-26 00:37 | 47.47820 | 8.95560 | 4995 ft | 257 kts | 209° |
| 2026-04-26 00:37 | 47.46317 | 8.94278 | 4997 ft | 243 kts | 209° |
| 2026-04-26 00:37 | 47.44880 | 8.93033 | 4996 ft | 238 kts | 212° |
| 2026-04-26 00:37 | 47.43826 | 8.91208 | 4999 ft | 236 kts | 247° |
| 2026-04-26 00:38 | 47.43458 | 8.88859 | 4995 ft | 237 kts | 267° |
| 2026-04-26 00:38 | 47.43553 | 8.86457 | 4994 ft | 229 kts | 277° |
| 2026-04-26 00:38 | 47.43746 | 8.84212 | 4997 ft | 218 kts | 276° |
| 2026-04-26 00:38 | 47.43909 | 8.82006 | 4995 ft | 213 kts | 275° |
| 2026-04-26 00:39 | 47.44048 | 8.79901 | 4869 ft | 199 kts | 275° |
| 2026-04-26 00:39 | 47.44176 | 8.77915 | 4613 ft | 190 kts | 276° |
| 2026-04-26 00:39 | 47.44311 | 8.76050 | 4275 ft | 176 kts | 277° |
| 2026-04-26 00:39 | 47.44436 | 8.74308 | 3974 ft | 164 kts | 277° |
| 2026-04-26 00:40 | 47.44550 | 8.72693 | 3729 ft | 152 kts | 277° |
| 2026-04-26 00:40 | 47.44656 | 8.71195 | 3509 ft | 141 kts | 278° |
| 2026-04-26 00:40 | 47.44754 | 8.69810 | 3314 ft | 132 kts | 278° |
| 2026-04-26 00:40 | 47.44851 | 8.68461 | 3139 ft | 136 kts | 278° |
| 2026-04-26 00:41 | 47.44934 | 8.67068 | 2922 ft | 137 kts | 276° |
| 2026-04-26 00:41 | 47.45013 | 8.65678 | 2711 ft | 135 kts | 278° |
| 2026-04-26 00:41 | 47.45088 | 8.64302 | 2489 ft | 132 kts | 277° |
| 2026-04-26 00:41 | 47.45199 | 8.62952 | 2319 ft | 133 kts | 279° |
| 2026-04-26 00:42 | 47.45307 | 8.61611 | 2073 ft | 128 kts | 276° |
| 2026-04-26 00:42 | 47.45413 | 8.60319 | 1899 ft | 126 kts | 278° |
| 2026-04-26 00:42 | 47.45511 | 8.59041 | 1727 ft | 125 kts | 276° |
| 2026-04-26 00:42 | 47.45604 | 8.57766 | 1532 ft | 123 kts | 276° |
| 2026-04-26 00:43 | 47.45691 | 8.56529 | 1424 ft | 118 kts | 276° |
| 2026-04-26 00:43 | 47.45765 | 8.55549 | 1408 ft | 53 kts | 276° |
| 2026-04-26 00:43 | 47.45787 | 8.55281 | 1407 ft | 12 kts | 287° |
| 2026-04-26 00:43 | 47.45844 | 8.55215 | 1406 ft | 11 kts | 325° |
| 2026-04-26 00:44 | 47.45917 | 8.55161 | 1411 ft | 12 kts | 339° |
| 2026-04-26 00:44 | 47.45921 | 8.55159 | 1411 ft | 0 kts | 339° |
| 2026-04-26 00:44 | 47.45933 | 8.55152 | 1411 ft | 3 kts | 339° |
| 2026-04-26 00:45 | 47.45963 | 8.55133 | 1409 ft | 8 kts | 336° |
| 2026-04-26 00:45 | 47.46036 | 8.55079 | 1411 ft | 16 kts | 333° |
| 2026-04-26 00:45 | 47.46161 | 8.54994 | 1409 ft | 22 kts | 336° |
| 2026-04-26 00:45 | 47.46285 | 8.54983 | 1411 ft | 14 kts | 50° |
| 2026-04-26 00:46 | 47.46284 | 8.55139 | 1406 ft | 19 kts | 96° |
| 2026-04-26 00:46 | 47.46265 | 8.55377 | 1410 ft | 27 kts | 96° |
| 2026-04-26 00:46 | 47.46249 | 8.55580 | 1409 ft | 6 kts | 104° |
| 2026-04-26 00:46 | 47.46212 | 8.55610 | 1406 ft | 6 kts | 168° |
| 2026-04-26 00:47 | 47.46171 | 8.55608 | 1408 ft | 0 kts | 181° |
| 2026-04-26 00:47 | 47.46165 | 8.55608 | 1408 ft | 0 kts | 184° |